Time;durP1;ratioP1;P1;durP2;ratioP2;P2;SDS_P1;SDS_P2;PMS_P1;PMS_P2;Temp;Humidity;BMP_temperature;BMP_pressure;BME280_temperature;BME280_humidity;BME280_pressure;Samples;Min_cycle;Max_cycle;Signal;HPM_P1;HPM_P2
2023/08/11 00:00:23;;;;;;;4.38;3.10;;;18.00;99.90;;;;;;5103917;28;20040;-55
2023/08/11 00:02:52;;;;;;;4.53;2.90;;;17.90;99.90;;;;;;5104047;28;20031;-59
2023/08/11 00:05:19;;;;;;;4.15;3.33;;;17.90;99.90;;;;;;5106662;28;20036;-59
2023/08/11 00:07:46;;;;;;;7.00;3.78;;;17.90;99.90;;;;;;5103253;28;20032;-59
2023/08/11 00:10:15;;;;;;;5.55;3.75;;;17.80;99.90;;;;;;5104936;28;20492;-59
2023/08/11 00:12:40;;;;;;;5.15;3.47;;;17.80;99.90;;;;;;5089110;28;20051;-60
2023/08/11 00:15:06;;;;;;;6.40;3.25;;;17.70;99.90;;;;;;5089356;28;20040;-60
2023/08/11 00:17:33;;;;;;;5.53;3.40;;;17.70;99.90;;;;;;5107923;28;20093;-58
2023/08/11 00:19:59;;;;;;;4.38;3.30;;;17.60;99.90;;;;;;5106077;28;20047;-58
2023/08/11 00:22:24;;;;;;;4.53;3.38;;;17.60;99.90;;;;;;5105610;28;20040;-59
2023/08/11 00:24:50;;;;;;;6.10;3.85;;;17.50;99.90;;;;;;5092527;28;20457;-56
2023/08/11 00:27:16;;;;;;;4.22;3.33;;;17.50;99.90;;;;;;5108369;28;20049;-59
2023/08/11 00:29:41;;;;;;;5.85;3.03;;;17.40;99.90;;;;;;5089650;28;20043;-58
2023/08/11 00:32:07;;;;;;;6.07;3.33;;;17.40;99.90;;;;;;5107056;28;20028;-60
2023/08/11 00:34:33;;;;;;;4.20;3.45;;;17.30;99.90;;;;;;5106490;28;20043;-59
2023/08/11 00:36:59;;;;;;;6.57;3.53;;;17.30;99.90;;;;;;5105880;28;20039;-59
2023/08/11 00:39:25;;;;;;;4.78;3.60;;;17.20;99.90;;;;;;5106188;28;20115;-60
2023/08/11 00:41:51;;;;;;;4.43;3.55;;;17.20;99.90;;;;;;5105426;28;20040;-58
2023/08/11 00:44:16;;;;;;;7.18;4.18;;;17.20;99.90;;;;;;5107573;28;20048;-58
2023/08/11 00:46:43;;;;;;;4.90;3.50;;;17.10;99.90;;;;;;5106921;28;20474;-59
2023/08/11 00:49:10;;;;;;;6.43;3.67;;;17.10;99.90;;;;;;5105236;28;20039;-56
2023/08/11 00:51:36;;;;;;;7.95;3.90;;;17.10;99.90;;;;;;5107008;28;20159;-59
2023/08/11 00:54:04;;;;;;;6.22;3.83;;;17.00;99.90;;;;;;5105779;28;20052;-59
2023/08/11 00:56:29;;;;;;;6.30;3.88;;;17.00;99.90;;;;;;5107324;28;20537;-59
2023/08/11 00:58:55;;;;;;;5.28;3.90;;;17.00;99.90;;;;;;5106408;28;20189;-60
2023/08/11 01:01:21;;;;;;;6.43;3.88;;;16.90;99.90;;;;;;5088663;28;20409;-59
2023/08/11 01:03:47;;;;;;;4.85;3.97;;;16.90;99.90;;;;;;5106364;28;20036;-57
2023/08/11 01:06:44;;;;;;;5.03;4.20;;;16.90;99.90;;;;;;5085158;28;20954;-59
2023/08/11 01:09:46;;;;;;;6.28;4.35;;;16.90;99.90;;;;;;5082318;28;20059;-57
2023/08/11 01:12:51;;;;;;;4.68;4.10;;;16.80;99.90;;;;;;5102175;28;20039;-60
2023/08/11 01:15:23;;;;;;;6.53;4.47;;;16.80;99.90;;;;;;5032258;28;20068;-59
2023/08/11 01:17:50;;;;;;;;;;;16.80;99.90;;;;;;5096299;28;20228;-58
2023/08/11 01:20:18;;;;;;;6.90;4.40;;;16.70;99.90;;;;;;5105689;28;19972;-58
2023/08/11 01:22:46;;;;;;;7.30;4.50;;;16.70;99.90;;;;;;5107995;28;20119;-59
2023/08/11 01:25:13;;;;;;;12.27;5.50;;;16.70;99.90;;;;;;5089460;28;20100;-59
2023/08/11 01:27:51;;;;;;;9.23;4.97;;;16.70;99.90;;;;;;5107407;28;20035;-56
2023/08/11 01:30:17;;;;;;;9.45;5.88;;;16.70;99.90;;;;;;5106202;28;20087;-59
2023/08/11 01:32:43;;;;;;;10.52;5.15;;;16.60;99.90;;;;;;5106116;28;20035;-59
2023/08/11 01:35:09;;;;;;;10.73;6.00;;;16.60;99.90;;;;;;5105491;28;20055;-59
2023/08/11 01:37:35;;;;;;;8.80;5.60;;;16.60;99.90;;;;;;5108954;28;20040;-59
2023/08/11 01:40:01;;;;;;;7.30;5.70;;;16.60;99.90;;;;;;5104451;28;20126;-59
2023/08/11 01:42:27;;;;;;;11.32;6.07;;;16.60;99.90;;;;;;5104957;28;20040;-58
2023/08/11 01:44:52;;;;;;;10.75;6.20;;;16.50;99.90;;;;;;5106249;28;20043;-60
2023/08/11 01:47:19;;;;;;;8.10;6.10;;;16.50;99.90;;;;;;5101877;28;20117;-59
2023/08/11 01:49:46;;;;;;;7.22;5.88;;;16.50;99.90;;;;;;5107565;28;20245;-59
2023/08/11 01:52:13;;;;;;;9.57;6.20;;;16.40;99.90;;;;;;5104682;28;20050;-59
2023/08/11 01:54:41;;;;;;;7.40;6.30;;;16.40;99.90;;;;;;5103932;28;20035;-60
2023/08/11 01:57:08;;;;;;;11.98;6.97;;;16.40;99.90;;;;;;5104650;28;20035;-59
2023/08/11 01:59:33;;;;;;;16.17;8.05;;;16.40;99.90;;;;;;5105422;28;20035;-59
2023/08/11 02:01:59;;;;;;;9.20;7.03;;;16.40;99.90;;;;;;5106059;28;20095;-59
2023/08/11 02:04:25;;;;;;;9.10;6.82;;;16.40;99.90;;;;;;5105094;28;20086;-59
2023/08/11 02:06:50;;;;;;;11.48;7.80;;;16.30;99.90;;;;;;5103717;28;20043;-59
2023/08/11 02:09:16;;;;;;;9.63;7.85;;;16.30;99.90;;;;;;5087313;28;20043;-59
2023/08/11 02:11:43;;;;;;;10.60;7.97;;;16.30;99.90;;;;;;5103904;28;20039;-59
2023/08/11 02:14:09;;;;;;;9.63;7.35;;;16.30;99.90;;;;;;5104974;28;21169;-60
2023/08/11 02:16:36;;;;;;;11.63;7.70;;;16.20;99.90;;;;;;5104386;28;20071;-56
2023/08/11 02:19:01;;;;;;;10.70;8.50;;;16.20;99.90;;;;;;5103227;28;20067;-60
2023/08/11 02:21:28;;;;;;;12.65;8.80;;;16.20;99.90;;;;;;5103056;28;20054;-59
2023/08/11 02:23:54;;;;;;;12.07;8.48;;;16.20;99.90;;;;;;5103557;28;20047;-59
2023/08/11 02:26:21;;;;;;;10.23;8.45;;;16.20;99.90;;;;;;5104148;28;20120;-58
2023/08/11 02:28:47;;;;;;;13.88;9.27;;;16.10;99.90;;;;;;5105531;28;20220;-56
2023/08/11 02:31:13;;;;;;;11.63;9.43;;;16.10;99.90;;;;;;5104515;28;20098;-57
2023/08/11 02:33:40;;;;;;;14.00;10.10;;;16.10;99.90;;;;;;5104087;28;20040;-58
2023/08/11 02:36:05;;;;;;;15.23;9.85;;;16.10;99.90;;;;;;5105104;28;20047;-59
2023/08/11 02:38:33;;;;;;;12.88;10.00;;;16.10;99.90;;;;;;5103893;28;20040;-57
2023/08/11 02:40:58;;;;;;;15.32;10.75;;;16.10;99.90;;;;;;5105029;28;20052;-60
2023/08/11 02:43:24;;;;;;;13.95;10.75;;;16.10;99.90;;;;;;5104670;28;20422;-59
2023/08/11 02:45:50;;;;;;;16.25;10.90;;;16.10;99.90;;;;;;5103764;28;20066;-56
2023/08/11 02:48:16;;;;;;;14.10;11.15;;;16.10;99.90;;;;;;5102229;28;20102;-59
2023/08/11 02:50:42;;;;;;;14.20;11.63;;;16.10;99.90;;;;;;5104047;28;20055;-57
2023/08/11 02:53:09;;;;;;;17.48;11.88;;;16.00;99.90;;;;;;5103688;28;20044;-57
2023/08/11 02:55:35;;;;;;;15.93;11.68;;;16.10;99.90;;;;;;5106028;28;20081;-59
2023/08/11 02:58:01;;;;;;;13.98;11.88;;;16.00;99.90;;;;;;5104839;28;20032;-59
2023/08/11 03:00:28;;;;;;;19.05;12.88;;;16.00;99.90;;;;;;5107770;28;20035;-59
2023/08/11 03:02:54;;;;;;;16.02;12.25;;;16.00;99.90;;;;;;5087700;28;20081;-56
2023/08/11 03:05:20;;;;;;;16.83;12.20;;;16.00;99.90;;;;;;5104418;28;20039;-58
2023/08/11 03:07:46;;;;;;;13.55;11.80;;;16.00;99.90;;;;;;5109850;28;20051;-57
2023/08/11 03:10:12;;;;;;;16.73;12.63;;;16.00;99.90;;;;;;5080633;28;20047;-57
2023/08/11 03:12:38;;;;;;;15.95;12.77;;;16.00;99.90;;;;;;5087871;28;20110;-59
2023/08/11 03:15:05;;;;;;;14.98;12.25;;;16.00;99.90;;;;;;5107363;28;20031;-59
2023/08/11 03:17:32;;;;;;;16.85;12.20;;;16.00;99.90;;;;;;5107586;28;20078;-59
2023/08/11 03:19:58;;;;;;;13.80;11.77;;;16.00;99.90;;;;;;5105457;28;20127;-58
2023/08/11 03:22:23;;;;;;;15.27;12.60;;;15.90;99.90;;;;;;5105812;28;20067;-59
2023/08/11 03:24:49;;;;;;;16.50;12.38;;;15.90;99.90;;;;;;5083590;28;20082;-59
2023/08/11 03:27:15;;;;;;;19.45;13.10;;;15.90;99.90;;;;;;5103110;28;20040;-59
2023/08/11 03:29:41;;;;;;;15.52;12.10;;;15.90;99.90;;;;;;5103693;28;20043;-59
2023/08/11 03:32:07;;;;;;;15.30;12.93;;;15.90;99.90;;;;;;5105466;28;20039;-59
2023/08/11 03:34:33;;;;;;;16.70;13.77;;;15.90;99.90;;;;;;5103280;28;20036;-58
2023/08/11 03:36:59;;;;;;;15.88;12.95;;;15.90;99.90;;;;;;5091341;28;20036;-57
2023/08/11 03:39:24;;;;;;;17.25;12.80;;;15.90;99.90;;;;;;5101149;28;20063;-59
2023/08/11 03:41:52;;;;;;;16.00;13.30;;;15.90;99.90;;;;;;5105875;28;20058;-57
2023/08/11 03:44:18;;;;;;;18.13;12.88;;;15.80;99.90;;;;;;5105504;28;20108;-59
2023/08/11 03:46:43;;;;;;;16.10;12.15;;;15.80;99.90;;;;;;5104950;28;20119;-58
2023/08/11 03:49:09;;;;;;;19.35;12.63;;;15.80;99.90;;;;;;5105011;28;20040;-59
2023/08/11 03:51:35;;;;;;;15.85;13.10;;;15.80;99.90;;;;;;5105563;28;20039;-60
2023/08/11 03:54:03;;;;;;;14.25;11.45;;;15.80;99.90;;;;;;5101627;28;20075;-59
2023/08/11 03:56:30;;;;;;;15.75;13.10;;;15.80;99.90;;;;;;5107502;28;20043;-58
2023/08/11 03:58:56;;;;;;;16.25;12.43;;;15.80;99.90;;;;;;5111302;28;20883;-59
2023/08/11 04:01:22;;;;;;;18.65;12.27;;;15.70;99.90;;;;;;5108723;28;20036;-59
2023/08/11 04:03:48;;;;;;;17.35;12.77;;;15.70;99.90;;;;;;5108319;28;20047;-59
2023/08/11 04:06:14;;;;;;;17.38;12.82;;;15.70;99.90;;;;;;5110694;28;20043;-59
2023/08/11 04:08:40;;;;;;;19.80;12.98;;;15.70;99.90;;;;;;5108428;28;20039;-57
2023/08/11 04:11:06;;;;;;;15.75;13.15;;;15.70;99.90;;;;;;5100738;28;20044;-55
2023/08/11 04:13:32;;;;;;;16.65;12.80;;;15.70;99.90;;;;;;5105064;28;20051;-60
2023/08/11 04:15:59;;;;;;;17.25;12.48;;;15.70;99.90;;;;;;5106455;28;20075;-58
2023/08/11 04:18:25;;;;;;;14.02;11.90;;;15.70;99.90;;;;;;5106471;28;20108;-59
2023/08/11 04:20:50;;;;;;;17.25;13.05;;;15.70;99.90;;;;;;5106073;28;20074;-57
2023/08/11 04:23:16;;;;;;;17.15;12.50;;;15.70;99.90;;;;;;5109838;28;20043;-56
2023/08/11 04:25:45;;;;;;;16.77;12.27;;;15.60;99.90;;;;;;5111629;28;20036;-59
2023/08/11 04:28:11;;;;;;;16.10;11.68;;;15.60;99.90;;;;;;5108289;28;20036;-55
2023/08/11 04:30:38;;;;;;;16.85;12.32;;;15.60;99.90;;;;;;5109741;28;20036;-59
2023/08/11 04:33:04;;;;;;;14.98;11.65;;;15.60;99.90;;;;;;5108700;28;20469;-59
2023/08/11 04:35:30;;;;;;;15.75;12.52;;;15.70;99.90;;;;;;5109723;28;20681;-59
2023/08/11 04:37:56;;;;;;;14.80;12.20;;;15.60;99.90;;;;;;5109407;28;20107;-58
2023/08/11 04:40:22;;;;;;;18.55;11.65;;;15.70;99.90;;;;;;5092775;28;20040;-59
2023/08/11 04:42:47;;;;;;;13.63;11.63;;;15.70;99.90;;;;;;5109337;28;20099;-59
2023/08/11 04:45:16;;;;;;;16.08;11.55;;;15.70;99.90;;;;;;5109604;28;20086;-56
2023/08/11 04:47:42;;;;;;;14.38;11.45;;;15.70;99.90;;;;;;5111055;28;20035;-58
2023/08/11 04:50:08;;;;;;;14.50;10.77;;;15.70;99.90;;;;;;5109673;28;20094;-59
2023/08/11 04:52:35;;;;;;;15.10;12.07;;;15.70;99.90;;;;;;5107817;28;20044;-59
2023/08/11 04:55:00;;;;;;;12.90;10.05;;;15.70;99.90;;;;;;5107576;28;20043;-59
2023/08/11 04:57:26;;;;;;;12.90;11.07;;;15.70;99.90;;;;;;5089450;28;20044;-59
2023/08/11 04:59:52;;;;;;;15.25;11.05;;;15.80;99.90;;;;;;5107330;28;20039;-59
2023/08/11 05:02:18;;;;;;;15.18;11.32;;;15.80;99.90;;;;;;5106689;28;20036;-57
2023/08/11 05:04:43;;;;;;;14.50;10.93;;;15.80;99.90;;;;;;5109054;28;20044;-59
2023/08/11 05:07:09;;;;;;;12.15;10.40;;;15.90;99.90;;;;;;5104105;28;20040;-59
2023/08/11 05:09:38;;;;;;;14.02;11.00;;;15.90;99.90;;;;;;5105699;28;20040;-59
2023/08/11 05:12:04;;;;;;;12.60;10.38;;;15.90;99.90;;;;;;5105913;28;20058;-60
2023/08/11 05:14:31;;;;;;;13.43;10.70;;;15.90;99.90;;;;;;5107599;28;20494;-59
2023/08/11 05:16:56;;;;;;;13.57;10.20;;;15.90;99.90;;;;;;5089894;28;20054;-59
2023/08/11 05:19:22;;;;;;;12.63;9.90;;;15.90;99.90;;;;;;5105950;28;20170;-58
2023/08/11 05:21:48;;;;;;;13.75;10.00;;;16.00;99.90;;;;;;5106410;28;20047;-57
2023/08/11 05:24:13;;;;;;;16.63;10.70;;;16.00;99.90;;;;;;5107256;28;20055;-59
2023/08/11 05:26:39;;;;;;;12.55;9.88;;;16.00;99.90;;;;;;5107286;28;20092;-59
2023/08/11 05:29:05;;;;;;;14.15;10.10;;;16.10;99.90;;;;;;5105963;28;20035;-59
2023/08/11 05:31:32;;;;;;;13.32;10.05;;;16.10;99.90;;;;;;5107993;27;20040;-59
2023/08/11 05:33:57;;;;;;;12.25;9.93;;;16.10;99.90;;;;;;5107900;28;20054;-58
2023/08/11 05:36:24;;;;;;;14.77;9.43;;;16.20;99.90;;;;;;5105182;28;20118;-57
2023/08/11 05:38:49;;;;;;;11.80;9.27;;;16.20;99.90;;;;;;5110056;28;20050;-59
2023/08/11 05:41:15;;;;;;;12.63;9.05;;;16.20;99.90;;;;;;5107144;28;20067;-58
2023/08/11 05:43:41;;;;;;;16.33;9.10;;;16.20;99.90;;;;;;5084796;28;20050;-57
2023/08/11 05:46:07;;;;;;;16.75;9.07;;;16.30;99.90;;;;;;5104736;28;20543;-60
2023/08/11 05:48:36;;;;;;;14.18;9.55;;;16.30;99.90;;;;;;5106822;28;20146;-59
2023/08/11 05:51:03;;;;;;;11.88;9.52;;;16.40;99.90;;;;;;5089217;28;20085;-59
2023/08/11 05:53:28;;;;;;;12.02;9.00;;;16.40;99.90;;;;;;5106206;28;20051;-54
2023/08/11 05:55:54;;;;;;;12.73;8.82;;;16.40;99.90;;;;;;5108153;28;20390;-60
2023/08/11 05:58:20;;;;;;;11.02;8.55;;;16.50;99.90;;;;;;5087915;28;20324;-59
2023/08/11 06:00:47;;;;;;;13.55;9.25;;;16.50;99.90;;;;;;5089551;28;20542;-57
2023/08/11 06:03:13;;;;;;;13.43;9.50;;;16.60;99.90;;;;;;5104523;28;20032;-59
2023/08/11 06:05:38;;;;;;;11.38;8.55;;;16.60;99.90;;;;;;5105145;28;20070;-59
2023/08/11 06:08:04;;;;;;;11.40;8.55;;;16.70;99.90;;;;;;5105966;28;20035;-57
2023/08/11 06:10:31;;;;;;;12.45;8.23;;;16.80;99.90;;;;;;5102834;28;20063;-59
2023/08/11 06:12:57;;;;;;;10.68;8.07;;;16.80;99.90;;;;;;5105880;28;20066;-59
2023/08/11 06:15:24;;;;;;;12.20;8.10;;;16.90;99.90;;;;;;5106040;28;20039;-59
2023/08/11 06:17:50;;;;;;;11.43;8.27;;;17.00;99.90;;;;;;5107953;28;20055;-59
2023/08/11 06:20:17;;;;;;;10.82;8.75;;;17.00;99.90;;;;;;5106218;28;20532;-60
2023/08/11 06:22:44;;;;;;;14.77;8.35;;;17.10;99.90;;;;;;5106939;28;20043;-56
2023/08/11 06:25:10;;;;;;;11.00;8.32;;;17.10;99.90;;;;;;5102881;28;20040;-59
2023/08/11 06:27:36;;;;;;;13.55;8.25;;;17.20;99.90;;;;;;5108727;28;20043;-58
2023/08/11 06:30:04;;;;;;;11.73;8.20;;;17.30;99.90;;;;;;5107814;28;20463;-58
2023/08/11 06:32:30;;;;;;;12.30;7.97;;;17.40;99.90;;;;;;5107542;28;20122;-59
2023/08/11 06:34:56;;;;;;;12.63;8.63;;;17.40;99.90;;;;;;5089543;28;20063;-60
2023/08/11 06:37:22;;;;;;;9.18;7.97;;;17.50;99.90;;;;;;5086817;28;20145;-60
2023/08/11 06:39:48;;;;;;;11.60;7.57;;;17.50;99.90;;;;;;5087168;28;20057;-58
2023/08/11 06:42:13;;;;;;;10.90;7.18;;;17.60;99.90;;;;;;5088696;28;20051;-59
2023/08/11 06:44:39;;;;;;;10.15;7.22;;;17.70;99.90;;;;;;5105244;28;20538;-58
2023/08/11 06:47:05;;;;;;;11.07;7.20;;;17.80;99.90;;;;;;5105104;28;20032;-59
2023/08/11 06:49:30;;;;;;;9.48;7.15;;;17.90;99.90;;;;;;5104092;28;20367;-60
2023/08/11 06:51:56;;;;;;;7.60;6.65;;;18.00;99.90;;;;;;5103590;28;20035;-58
2023/08/11 06:54:22;;;;;;;10.70;7.25;;;18.10;99.90;;;;;;5102497;28;20047;-59
2023/08/11 06:56:48;;;;;;;9.40;7.15;;;18.20;99.90;;;;;;5104658;28;20068;-58
2023/08/11 06:59:13;;;;;;;9.73;6.55;;;18.20;99.90;;;;;;5104509;28;20417;-60
2023/08/11 07:01:39;;;;;;;11.45;6.60;;;18.40;99.90;;;;;;5103445;28;20047;-59
2023/08/11 07:04:05;;;;;;;7.22;6.05;;;18.50;99.90;;;;;;5089936;28;20036;-60
2023/08/11 07:06:31;;;;;;;9.20;6.28;;;18.60;99.90;;;;;;5103548;28;20039;-55
2023/08/11 07:08:56;;;;;;;11.93;6.18;;;18.60;99.90;;;;;;5104140;28;20040;-59
2023/08/11 07:11:22;;;;;;;10.38;5.82;;;18.70;99.90;;;;;;5102898;28;20036;-57
2023/08/11 07:13:48;;;;;;;12.77;6.70;;;18.80;99.90;;;;;;5086530;28;20031;-60
2023/08/11 07:16:14;;;;;;;11.65;6.38;;;19.00;99.90;;;;;;5103168;28;20584;-60
2023/08/11 07:18:39;;;;;;;11.15;6.80;;;19.10;99.90;;;;;;5104515;28;20052;-59
2023/08/11 07:21:05;;;;;;;9.85;6.30;;;19.20;99.90;;;;;;5103421;28;20051;-59
2023/08/11 07:23:32;;;;;;;10.30;6.47;;;19.30;99.90;;;;;;5092914;28;20466;-59
2023/08/11 07:25:57;;;;;;;8.57;6.43;;;19.40;99.90;;;;;;5102789;28;20042;-60
2023/08/11 07:28:23;;;;;;;10.57;6.45;;;19.60;99.90;;;;;;5104176;28;20036;-60
2023/08/11 07:30:49;;;;;;;10.90;6.45;;;19.70;99.90;;;;;;5104336;28;20047;-59
2023/08/11 07:33:14;;;;;;;8.90;6.22;;;19.80;99.90;;;;;;5094976;28;20509;-56
2023/08/11 07:35:40;;;;;;;8.00;6.00;;;19.90;99.90;;;;;;5108368;28;20074;-60
2023/08/11 07:38:06;;;;;;;9.20;6.13;;;20.00;99.90;;;;;;5107627;28;20051;-60
2023/08/11 07:40:32;;;;;;;9.00;6.20;;;20.10;99.90;;;;;;5107267;28;20046;-59
2023/08/11 07:42:58;;;;;;;10.85;6.00;;;20.20;99.90;;;;;;5107233;28;20039;-55
2023/08/11 07:45:24;;;;;;;7.18;5.95;;;20.30;99.90;;;;;;5107417;28;20429;-57
2023/08/11 07:47:50;;;;;;;13.55;5.90;;;20.40;99.90;;;;;;5108704;28;20039;-58
2023/08/11 07:50:15;;;;;;;6.93;5.82;;;20.50;99.90;;;;;;5108872;28;20050;-57
2023/08/11 07:52:41;;;;;;;10.48;5.78;;;20.60;99.90;;;;;;5107087;28;20055;-59
2023/08/11 07:55:07;;;;;;;7.75;5.30;;;20.70;99.90;;;;;;5109089;28;20390;-59
2023/08/11 07:57:33;;;;;;;7.63;5.40;;;20.80;99.90;;;;;;5109298;28;20048;-60
2023/08/11 07:59:59;;;;;;;6.28;5.57;;;20.90;99.90;;;;;;5108408;28;20046;-57
2023/08/11 08:02:26;;;;;;;9.10;5.43;;;21.00;99.90;;;;;;5109239;28;20548;-59
2023/08/11 08:04:52;;;;;;;11.25;5.63;;;21.10;99.90;;;;;;5095776;28;20159;-59
2023/08/11 08:07:18;;;;;;;6.90;5.20;;;21.20;99.90;;;;;;5108767;28;20580;-60
2023/08/11 08:09:43;;;;;;;7.38;5.47;;;21.30;99.90;;;;;;5107286;28;20028;-59
2023/08/11 08:12:09;;;;;;;10.80;5.30;;;21.40;99.90;;;;;;5111720;28;20065;-60
2023/08/11 08:14:35;;;;;;;6.43;5.28;;;21.50;99.90;;;;;;5109745;28;20035;-59
2023/08/11 08:17:01;;;;;;;7.75;4.97;;;21.60;99.90;;;;;;5110112;27;20065;-59
2023/08/11 08:19:27;;;;;;;4.95;4.35;;;21.70;99.90;;;;;;5107969;28;20055;-60
2023/08/11 08:21:53;;;;;;;7.82;4.70;;;21.70;99.90;;;;;;5095971;27;20989;-59
2023/08/11 08:24:19;;;;;;;6.68;4.90;;;21.90;99.90;;;;;;5107410;27;20124;-57
2023/08/11 08:26:47;;;;;;;9.65;5.35;;;22.00;99.90;;;;;;5110888;27;20040;-60
2023/08/11 08:29:14;;;;;;;8.95;5.20;;;22.10;99.90;;;;;;5108345;27;20051;-60
2023/08/11 08:31:40;;;;;;;8.95;5.20;;;22.30;99.90;;;;;;5107599;28;20036;-60
2023/08/11 08:34:06;;;;;;;8.50;5.20;;;22.40;99.90;;;;;;5105541;27;20093;-59
2023/08/11 08:36:31;;;;;;;10.05;5.43;;;22.40;99.90;;;;;;5105226;28;20432;-59
2023/08/11 08:38:57;;;;;;;6.22;4.70;;;22.50;99.90;;;;;;5105562;27;20039;-59
2023/08/11 08:41:28;;;;;;;7.47;4.93;;;22.60;99.90;;;;;;5089184;28;20040;-60
2023/08/11 08:43:55;;;;;;;9.35;5.00;;;22.70;99.90;;;;;;5104146;27;20040;-58
2023/08/11 08:46:22;;;;;;;7.00;4.22;;;22.80;99.90;;;;;;5101744;28;20656;-60
2023/08/11 08:48:58;;;;;;;7.32;4.90;;;22.90;99.90;;;;;;5104131;28;20031;-57
2023/08/11 08:51:25;;;;;;;5.70;4.20;;;23.00;99.90;;;;;;5104445;27;20402;-58
2023/08/11 08:53:51;;;;;;;5.20;4.40;;;23.10;99.90;;;;;;5105529;28;20040;-60
2023/08/11 08:56:17;;;;;;;6.93;4.50;;;23.20;99.90;;;;;;5103603;27;20054;-58
2023/08/11 08:58:43;;;;;;;6.57;4.55;;;23.30;99.90;;;;;;5093597;28;20050;-60
2023/08/11 09:01:10;;;;;;;21.90;4.60;;;23.30;99.90;;;;;;5105138;28;20032;-59
2023/08/11 09:03:37;;;;;;;7.93;4.03;;;23.50;99.90;;;;;;5103445;28;20122;-60
2023/08/11 09:06:05;;;;;;;8.82;4.32;;;23.60;99.90;;;;;;5103625;28;20040;-59
2023/08/11 09:08:38;;;;;;;7.57;4.18;;;23.70;99.90;;;;;;5092649;27;20046;-59
2023/08/11 09:11:04;;;;;;;7.80;4.10;;;23.80;99.90;;;;;;5102566;27;20031;-59
2023/08/11 09:13:31;;;;;;;5.82;3.90;;;23.90;99.90;;;;;;5102775;28;20042;-60
2023/08/11 09:15:57;;;;;;;10.10;4.35;;;24.10;99.90;;;;;;5103655;27;20028;-60
2023/08/11 09:18:23;;;;;;;8.73;4.45;;;24.20;99.90;;;;;;5069868;28;20043;-58
2023/08/11 09:20:49;;;;;;;6.18;3.95;;;24.30;99.90;;;;;;5106894;28;20698;-59
2023/08/11 09:23:18;;;;;;;6.30;3.65;;;24.40;99.90;;;;;;5085347;28;20071;-55
2023/08/11 09:25:45;;;;;;;7.38;3.67;;;24.50;99.60;;;;;;5087366;28;20051;-59
2023/08/11 09:28:12;;;;;;;6.63;3.75;;;24.50;99.30;;;;;;5087536;28;20094;-59
2023/08/11 09:30:38;;;;;;;4.88;3.72;;;24.70;99.40;;;;;;5105678;27;20028;-58
2023/08/11 09:33:07;;;;;;;6.85;3.78;;;24.80;99.20;;;;;;5106563;28;20075;-57
2023/08/11 09:35:34;;;;;;;8.85;3.95;;;24.90;99.00;;;;;;5106474;28;20074;-59
2023/08/11 09:38:00;;;;;;;9.88;3.72;;;25.00;98.80;;;;;;5106127;28;20040;-59
2023/08/11 09:40:26;;;;;;;5.93;3.20;;;25.10;98.70;;;;;;5105400;28;20054;-60
2023/08/11 09:42:55;;;;;;;4.95;3.20;;;25.20;98.60;;;;;;5087437;28;20040;-58
2023/08/11 09:45:22;;;;;;;8.25;3.00;;;25.40;98.40;;;;;;5106360;28;20043;-60
2023/08/11 09:47:48;;;;;;;7.20;3.40;;;25.50;98.10;;;;;;5104841;28;20047;-60
2023/08/11 09:50:14;;;;;;;5.88;3.42;;;25.50;97.90;;;;;;5104681;28;20044;-59
2023/08/11 09:52:42;;;;;;;6.63;3.72;;;25.60;97.60;;;;;;5084819;28;20085;-60
2023/08/11 09:55:10;;;;;;;4.75;2.92;;;25.70;96.90;;;;;;5104073;28;20036;-59
2023/08/11 09:57:43;;;;;;;4.10;2.95;;;25.70;97.10;;;;;;5104512;28;20095;-58
2023/08/11 10:00:13;;;;;;;9.73;3.40;;;25.90;96.90;;;;;;5106057;28;20092;-57
2023/08/11 10:02:59;;;;;;;6.40;2.85;;;25.90;96.00;;;;;;5105084;28;20050;-60
2023/08/11 10:05:28;;;;;;;9.48;3.17;;;26.00;95.70;;;;;;5104015;28;20048;-58
2023/08/11 10:07:57;;;;;;;6.57;3.15;;;26.20;95.50;;;;;;5103817;28;20032;-59
2023/08/11 10:10:23;;;;;;;8.25;2.92;;;26.30;95.20;;;;;;5105684;28;20044;-60
2023/08/11 10:12:58;;;;;;;6.78;3.13;;;26.40;95.10;;;;;;5105500;28;20091;-59
2023/08/11 10:15:27;;;;;;;6.40;3.30;;;26.50;94.50;;;;;;5103638;28;20047;-60
2023/08/11 10:17:53;;;;;;;10.50;3.35;;;26.50;94.70;;;;;;5106173;28;20044;-60
2023/08/11 10:20:19;;;;;;;8.77;3.00;;;26.50;94.10;;;;;;5072133;28;20051;-59
2023/08/11 10:22:45;;;;;;;9.80;2.75;;;26.50;93.40;;;;;;5103994;28;20501;-60
2023/08/11 10:25:12;;;;;;;9.07;3.10;;;26.50;93.40;;;;;;5104270;28;20035;-60
2023/08/11 10:27:39;;;;;;;4.80;2.88;;;26.50;93.40;;;;;;5104567;28;20085;-57
2023/08/11 10:30:07;;;;;;;4.72;2.72;;;26.60;93.70;;;;;;5107644;28;20032;-58
2023/08/11 10:32:33;;;;;;;6.05;2.97;;;26.80;93.90;;;;;;5104295;28;20093;-60
2023/08/11 10:34:59;;;;;;;5.22;2.67;;;27.00;93.50;;;;;;5102489;28;20114;-60
2023/08/11 10:37:30;;;;;;;7.72;2.90;;;27.20;93.00;;;;;;5103364;28;20100;-60
2023/08/11 10:40:04;;;;;;;4.32;2.72;;;27.30;92.70;;;;;;5102029;28;20039;-60
2023/08/11 10:42:31;;;;;;;3.55;2.55;;;27.40;91.50;;;;;;5103387;28;20043;-58
2023/08/11 10:45:24;;;;;;;4.15;2.30;;;27.40;92.10;;;;;;5104750;28;20063;-61
2023/08/11 10:47:54;;;;;;;6.78;2.88;;;27.70;92.30;;;;;;5081283;28;20512;-60
2023/08/11 10:50:21;;;;;;;6.47;2.63;;;27.80;91.80;;;;;;5101928;28;20117;-60
2023/08/11 10:52:54;;;;;;;3.90;2.70;;;27.90;91.20;;;;;;5101433;28;20477;-59
2023/08/11 10:55:21;;;;;;;9.43;2.80;;;27.90;90.80;;;;;;5100566;28;20079;-60
2023/08/11 10:58:12;;;;;;;3.63;2.60;;;27.90;90.40;;;;;;5103463;28;20031;-59
2023/08/11 11:00:40;;;;;;;5.38;2.50;;;27.80;90.40;;;;;;5102581;28;20062;-60
2023/08/11 11:03:06;;;;;;;6.18;2.55;;;27.90;89.90;;;;;;5105582;28;20028;-60
2023/08/11 11:05:32;;;;;;;3.47;2.70;;;27.90;89.80;;;;;;5101972;28;20044;-61
2023/08/11 11:07:58;;;;;;;7.97;2.50;;;28.00;88.60;;;;;;5101462;28;20038;-61
2023/08/11 11:10:23;;;;;;;3.22;2.10;;;28.10;89.00;;;;;;5101278;28;20314;-61
2023/08/11 11:12:49;;;;;;;7.13;2.55;;;28.30;87.50;;;;;;5099889;28;20032;-61
2023/08/11 11:15:15;;;;;;;5.63;2.70;;;28.40;85.40;;;;;;5101616;28;20079;-61
2023/08/11 11:17:41;;;;;;;5.85;2.53;;;28.50;84.30;;;;;;5086943;28;20120;-61
2023/08/11 11:20:08;;;;;;;7.25;2.60;;;28.60;84.20;;;;;;5097615;28;20065;-58
2023/08/11 11:22:36;;;;;;;6.90;2.50;;;28.60;82.50;;;;;;5097176;28;20148;-60
2023/08/11 11:25:02;;;;;;;9.60;2.70;;;28.50;81.50;;;;;;5096429;28;20044;-57
2023/08/11 11:27:28;;;;;;;4.40;2.60;;;28.40;81.80;;;;;;5101274;28;20065;-60
2023/08/11 11:30:00;;;;;;;7.25;2.72;;;28.50;82.30;;;;;;5101301;28;20439;-60
2023/08/11 11:32:26;;;;;;;2.97;2.00;;;28.40;83.50;;;;;;5099207;28;20044;-60
2023/08/11 11:34:52;;;;;;;3.58;2.20;;;28.40;83.20;;;;;;5080662;28;20105;-58
2023/08/11 11:37:18;;;;;;;3.33;2.40;;;28.30;81.50;;;;;;5098907;28;20079;-60
2023/08/11 11:39:44;;;;;;;5.32;2.42;;;28.40;81.30;;;;;;5099758;28;20224;-58
2023/08/11 11:42:09;;;;;;;3.72;2.42;;;28.50;82.40;;;;;;5101086;28;20036;-59
2023/08/11 11:44:36;;;;;;;4.10;2.50;;;28.60;82.30;;;;;;5097658;28;20063;-60
2023/08/11 11:47:04;;;;;;;4.75;2.20;;;28.80;82.50;;;;;;5099197;28;20070;-61
2023/08/11 11:49:32;;;;;;;3.67;2.80;;;29.10;81.80;;;;;;5098738;28;20063;-60
2023/08/11 11:52:00;;;;;;;12.00;2.60;;;29.30;79.90;;;;;;5099111;28;20031;-59
2023/08/11 11:54:30;;;;;;;4.68;2.30;;;29.40;78.70;;;;;;5101683;28;20075;-60
2023/08/11 11:56:58;;;;;;;3.38;1.98;;;29.50;78.40;;;;;;5099456;28;20051;-60
2023/08/11 11:59:26;;;;;;;4.75;2.40;;;29.60;78.50;;;;;;5081485;28;20074;-58
2023/08/11 12:01:52;;;;;;;3.58;2.28;;;29.70;78.10;;;;;;5094404;28;20059;-58
2023/08/11 12:04:18;;;;;;;3.83;2.53;;;29.80;77.20;;;;;;5092169;28;20043;-57
2023/08/11 12:06:43;;;;;;;4.63;2.47;;;29.80;75.80;;;;;;5094886;28;20092;-58
2023/08/11 12:09:09;;;;;;;7.50;2.60;;;29.80;75.80;;;;;;5082534;28;20051;-58
2023/08/11 12:11:37;;;;;;;6.10;2.22;;;29.90;76.40;;;;;;5095177;28;20097;-58
2023/08/11 12:14:05;;;;;;;4.80;2.22;;;30.10;75.80;;;;;;5096046;28;20047;-57
2023/08/11 12:16:31;;;;;;;4.82;2.35;;;30.10;74.40;;;;;;5094253;28;20077;-57
2023/08/11 12:19:02;;;;;;;6.40;2.78;;;30.00;74.40;;;;;;5097314;28;20071;-57
2023/08/11 12:21:28;;;;;;;2.72;2.30;;;29.90;75.30;;;;;;5098774;28;20051;-57
2023/08/11 12:23:54;;;;;;;8.27;2.55;;;29.70;73.90;;;;;;5096605;28;20399;-57
2023/08/11 12:26:20;;;;;;;8.88;2.90;;;29.50;74.00;;;;;;5098358;28;20043;-57
2023/08/11 12:28:45;;;;;;;5.85;2.60;;;29.50;75.40;;;;;;5098192;28;20043;-58
2023/08/11 12:31:11;;;;;;;3.65;2.60;;;29.40;74.60;;;;;;5097427;28;20043;-57
2023/08/11 12:33:38;;;;;;;6.60;2.28;;;29.30;74.80;;;;;;5098578;28;20036;-58
2023/08/11 12:36:04;;;;;;;6.45;2.50;;;29.20;75.20;;;;;;5098078;28;20052;-57
2023/08/11 12:38:31;;;;;;;4.13;2.45;;;29.20;75.70;;;;;;5097255;28;20406;-57